createdAt,value
2023-01-03T00:00:25.264Z,96369.09
2023-01-03T00:03:28.714Z,96372.59
2023-01-03T00:06:32.199Z,96374.72
2023-01-03T00:09:34.037Z,96376.94
2023-01-03T00:12:36.362Z,96369.66
2023-01-03T00:15:38.304Z,96372.25
2023-01-03T00:18:41.515Z,96379.31
2023-01-03T00:21:44.048Z,96382.03
2023-01-03T00:24:47.649Z,96387.75
2023-01-03T00:27:49.803Z,96384.19
2023-01-03T00:30:51.650Z,96384.97
2023-01-03T00:33:55.195Z,96388.00
2023-01-03T00:36:57.654Z,96382.13
2023-01-03T00:39:59.452Z,96387.59
2023-01-03T00:43:01.689Z,96388.59
2023-01-03T00:46:04.739Z,96385.50
2023-01-03T00:49:08.972Z,96393.72
2023-01-03T00:52:10.774Z,96397.50
2023-01-03T00:55:12.635Z,96399.25
2023-01-03T00:58:14.998Z,96406.78
2023-01-03T01:01:18.796Z,96400.44
2023-01-03T01:04:24.458Z,96404.59
2023-01-03T01:07:26.274Z,96407.91
2023-01-03T01:10:28.096Z,96405.91
2023-01-03T01:13:30.438Z,96406.22
2023-01-03T01:16:32.843Z,96412.59
2023-01-03T01:19:39.506Z,96410.97
2023-01-03T01:22:41.605Z,96410.97
2023-01-03T01:25:43.443Z,96422.28
2023-01-03T01:28:45.683Z,96419.66
2023-01-03T01:31:48.238Z,96432.34
2023-01-03T01:34:51.657Z,96442.31
2023-01-03T01:37:53.514Z,96437.91
2023-01-03T01:40:56.035Z,96432.78
2023-01-03T01:43:58.832Z,96435.47
2023-01-03T01:47:02.402Z,96440.38
2023-01-03T01:50:15.260Z,96443.84
2023-01-03T01:53:20.704Z,96438.38
2023-01-03T01:56:26.914Z,96447.06
2023-01-03T01:59:28.827Z,96440.78
2023-01-03T02:02:30.892Z,96445.75
2023-01-03T02:05:36.932Z,96443.13
2023-01-03T02:08:41.581Z,96455.44
2023-01-03T02:11:53.891Z,96458.56
2023-01-03T02:15:08.747Z,96449.69
2023-01-03T02:18:32.186Z,96452.09
2023-01-03T02:22:02.066Z,96455.19
2023-01-03T02:25:35.686Z,96451.00
2023-01-03T02:29:07.258Z,96444.34
2023-01-03T02:32:14.085Z,96452.69
2023-01-03T02:35:23.724Z,96452.91
2023-01-03T02:38:34.619Z,96450.19
2023-01-03T02:41:44.095Z,96449.22
2023-01-03T02:44:52.571Z,96455.19
2023-01-03T02:48:03.112Z,96454.09
2023-01-03T02:51:12.256Z,96449.75
2023-01-03T02:54:19.449Z,96454.25
2023-01-03T02:57:26.963Z,96458.88
2023-01-03T03:00:32.348Z,96460.44
2023-01-03T03:03:37.822Z,96457.50
2023-01-03T03:06:47.774Z,96458.91
2023-01-03T03:09:49.784Z,96467.59
2023-01-03T03:12:56.218Z,96459.06
2023-01-03T03:16:05.861Z,96464.00
2023-01-03T03:19:20.249Z,96465.06
2023-01-03T03:22:30.249Z,96467.16
2023-01-03T03:25:36.234Z,96469.78
2023-01-03T03:28:40.967Z,96476.13
2023-01-03T03:31:46.242Z,96470.22
2023-01-03T03:34:50.351Z,96463.94
2023-01-03T03:37:55.801Z,96461.97
2023-01-03T03:41:14.781Z,96467.09
2023-01-03T03:44:26.182Z,96470.06
2023-01-03T03:47:37.431Z,96463.94
2023-01-03T03:50:46.795Z,96455.97
2023-01-03T03:53:49.555Z,96455.19
2023-01-03T03:56:59.933Z,96455.19
2023-01-03T04:00:11.282Z,96469.78
2023-01-03T04:03:15.448Z,96467.53
2023-01-03T04:06:22.808Z,96469.53
2023-01-03T04:09:24.702Z,96471.78
2023-01-03T04:12:26.601Z,96477.09
2023-01-03T04:15:28.369Z,96482.84
2023-01-03T04:18:30.276Z,96485.44
2023-01-03T04:21:33.564Z,96495.28
2023-01-03T04:24:35.376Z,96492.22
2023-01-03T04:27:37.278Z,96499.53
2023-01-03T04:30:39.118Z,96499.31
2023-01-03T04:33:40.977Z,96495.38
2023-01-03T04:36:44.184Z,96498.16
2023-01-03T04:39:45.947Z,96505.13
2023-01-03T04:42:47.760Z,96507.47
2023-01-03T04:45:50.085Z,96503.66
2023-01-03T04:48:51.951Z,96505.38
2023-01-03T04:51:55.164Z,96508.53
2023-01-03T04:54:56.968Z,96505.72
2023-01-03T04:57:58.766Z,96507.53
2023-01-03T05:01:01.114Z,96506.94
2023-01-03T05:04:03.088Z,96504.94
2023-01-03T05:07:06.295Z,96504.94
2023-01-03T05:10:08.758Z,96509.09
2023-01-03T05:13:10.657Z,96505.47
2023-01-03T05:16:14.530Z,96513.06
2023-01-03T05:19:16.488Z,96523.84
2023-01-03T05:22:19.676Z,96521.59
2023-01-03T05:25:21.452Z,96521.50
2023-01-03T05:28:24.130Z,96519.16
2023-01-03T05:31:25.995Z,96522.63
2023-01-03T05:34:27.837Z,96516.88
2023-01-03T05:37:31.016Z,96518.38
2023-01-03T05:40:37.664Z,96529.13
2023-01-03T05:43:42.795Z,96533.84
2023-01-03T05:46:44.614Z,96536.69
2023-01-03T05:49:46.443Z,96541.28
2023-01-03T05:52:49.632Z,96532.84
2023-01-03T05:55:51.556Z,96541.66
2023-01-03T05:58:53.343Z,96544.22
2023-01-03T06:01:55.486Z,96563.22
2023-01-03T06:04:57.485Z,96556.16
2023-01-03T06:08:01.582Z,96557.72
2023-01-03T06:11:05.761Z,96548.53
2023-01-03T06:14:07.813Z,96543.25
2023-01-03T06:17:09.662Z,96538.53
2023-01-03T06:20:12.017Z,96543.56
2023-01-03T06:23:15.241Z,96551.06
2023-01-03T06:26:19.502Z,96545.25
2023-01-03T06:29:21.601Z,96547.94
2023-01-03T06:32:23.371Z,96537.16
2023-01-03T06:35:25.181Z,96546.72
2023-01-03T06:38:28.962Z,96548.94
2023-01-03T06:41:30.759Z,96547.63
2023-01-03T06:44:32.539Z,96556.38
2023-01-03T06:47:34.580Z,96552.25
2023-01-03T06:50:39.091Z,96563.69
2023-01-03T06:53:43.124Z,96573.66
2023-01-03T06:56:45.075Z,96571.31
2023-01-03T06:59:47.052Z,96572.13
2023-01-03T07:02:49.033Z,96577.38
2023-01-03T07:05:51.500Z,96582.44
2023-01-03T07:08:54.717Z,96588.16
2023-01-03T07:11:56.509Z,96594.78
2023-01-03T07:14:58.371Z,96593.09
2023-01-03T07:18:00.245Z,96597.22
2023-01-03T07:21:05.769Z,96605.56
2023-01-03T07:24:11.646Z,96603.09
2023-01-03T07:27:13.455Z,96604.44
2023-01-03T07:30:15.354Z,96602.88
2023-01-03T07:33:17.804Z,96598.59
2023-01-03T07:36:21.104Z,96605.13
2023-01-03T07:39:24.357Z,96600.66
2023-01-03T07:42:26.105Z,96598.16
2023-01-03T07:45:27.923Z,96599.94
2023-01-03T07:48:29.720Z,96596.81
2023-01-03T07:51:31.532Z,96604.66
2023-01-03T07:54:34.823Z,96603.88
2023-01-03T07:57:37.141Z,96601.50
2023-01-03T08:00:39.305Z,96609.47
2023-01-03T08:03:41.613Z,96606.91
2023-01-03T08:06:43.457Z,96615.44
2023-01-03T08:09:46.637Z,96615.28
2023-01-03T08:12:48.453Z,96619.78
2023-01-03T08:15:52.230Z,96621.66
2023-01-03T08:18:54.522Z,96630.66
2023-01-03T08:21:56.298Z,96626.19
2023-01-03T08:24:59.571Z,96631.75
2023-01-03T08:28:01.960Z,96626.03
2023-01-03T08:31:08.481Z,96635.91
2023-01-03T08:34:18.658Z,96631.63
2023-01-03T08:37:22.884Z,96626.13
2023-01-03T08:40:26.186Z,96632.19
2023-01-03T08:43:29.303Z,96631.97
2023-01-03T08:46:33.339Z,96634.19
2023-01-03T08:49:35.494Z,96646.19
2023-01-03T08:52:37.432Z,96648.56
2023-01-03T08:55:40.671Z,96652.34
2023-01-03T08:58:42.442Z,96643.19
2023-01-03T09:01:44.397Z,96655.25
2023-01-03T09:04:46.333Z,96658.03
2023-01-03T09:07:48.216Z,96651.25
2023-01-03T09:10:51.445Z,96662.19
2023-01-03T09:13:55.232Z,96657.81
2023-01-03T09:16:57.216Z,96657.69
2023-01-03T09:19:59.054Z,96658.69
2023-01-03T09:23:00.853Z,96660.50
2023-01-03T09:26:04.963Z,96670.94
2023-01-03T09:29:06.730Z,96672.06
2023-01-03T09:32:08.561Z,96666.56
2023-01-03T09:35:10.528Z,96665.69
2023-01-03T09:38:12.367Z,96666.56
2023-01-03T09:41:22.013Z,96661.00
2023-01-03T09:44:23.893Z,96663.09
2023-01-03T09:47:26.403Z,96667.38
2023-01-03T09:50:50.228Z,96666.00
2023-01-03T09:53:54.086Z,96669.94
2023-01-03T09:56:57.544Z,96666.44
2023-01-03T09:59:59.374Z,96671.19
2023-01-03T10:03:22.541Z,96665.69
2023-01-03T10:06:35.364Z,96667.69
2023-01-03T10:09:46.206Z,96657.03
2023-01-03T10:13:03.119Z,96658.44
2023-01-03T10:16:15.305Z,96663.00
2023-01-03T10:19:34.871Z,96654.16
2023-01-03T10:22:39.109Z,96657.88
2023-01-03T10:25:45.173Z,96652.81
2023-01-03T10:28:48.566Z,96650.81
2023-01-03T10:32:08.313Z,96644.09
2023-01-03T10:35:16.902Z,96638.38
2023-01-03T10:38:18.989Z,96650.06
2023-01-03T10:41:29.903Z,96654.44
2023-01-03T10:44:33.605Z,96646.00
2023-01-03T10:47:35.460Z,96654.63
2023-01-03T10:50:38.034Z,96645.44
2023-01-03T10:53:42.005Z,96647.47
2023-01-03T10:56:45.500Z,96657.81
2023-01-03T10:59:50.179Z,96649.81
2023-01-03T11:02:52.753Z,96643.97
2023-01-03T11:06:08.723Z,96628.06
2023-01-03T11:09:10.867Z,96639.41
2023-01-03T11:12:14.772Z,96629.31
2023-01-03T11:15:19.988Z,96633.78
2023-01-03T11:18:21.975Z,96631.34
2023-01-03T11:21:30.247Z,96631.78
2023-01-03T11:24:49.157Z,96634.03
2023-01-03T11:28:19.679Z,96637.47
2023-01-03T11:31:34.510Z,96632.38
2023-01-03T11:35:22.337Z,96636.06
2023-01-03T11:38:31.713Z,96637.41
2023-01-03T11:41:59.297Z,96640.31
2023-01-03T11:45:23.432Z,96634.69
2023-01-03T11:48:55.659Z,96634.47
2023-01-03T11:52:13.074Z,96633.13
2023-01-03T11:55:28.100Z,96628.88
2023-01-03T11:58:53.558Z,96627.28
2023-01-03T12:02:29.194Z,96629.22
2023-01-03T12:05:53.033Z,96623.19
2023-01-03T12:09:06.979Z,96621.91
2023-01-03T12:12:36.990Z,96619.91
2023-01-03T12:15:44.740Z,96617.22
2023-01-03T12:18:53.176Z,96622.03
2023-01-03T12:22:02.732Z,96627.63
2023-01-03T12:25:15.248Z,96626.50
2023-01-03T12:28:23.921Z,96622.38
2023-01-03T12:31:32.608Z,96613.84
2023-01-03T12:34:39.795Z,96614.63
2023-01-03T12:37:45.950Z,96616.84
2023-01-03T12:40:52.728Z,96603.88
2023-01-03T12:44:00.209Z,96597.03
2023-01-03T12:47:03.699Z,96608.69
2023-01-03T12:50:13.810Z,96605.00
2023-01-03T12:53:24.081Z,96606.56
2023-01-03T12:56:53.912Z,96611.16
2023-01-03T13:00:22.722Z,96613.84
2023-01-03T13:03:29.526Z,96614.41
2023-01-03T13:06:34.897Z,96615.31
2023-01-03T13:09:42.839Z,96619.47
2023-01-03T13:12:50.672Z,96622.59
2023-01-03T13:15:53.988Z,96617.78
2023-01-03T13:18:55.848Z,96615.09
2023-01-03T13:22:03.797Z,96615.19
2023-01-03T13:25:30.966Z,96619.56
2023-01-03T13:28:33.844Z,96618.91
2023-01-03T13:31:38.809Z,96612.06
2023-01-03T13:34:40.770Z,96621.91
2023-01-03T13:37:44.704Z,96629.22
2023-01-03T13:41:18.612Z,96620.00
2023-01-03T13:44:19.548Z,96626.28
2023-01-03T13:47:30.848Z,96622.66
2023-01-03T13:50:34.943Z,96620.66
2023-01-03T13:53:39.036Z,96626.81
2023-01-03T13:57:04.115Z,96629.63
2023-01-03T14:00:17.692Z,96629.97
2023-01-03T14:03:48.853Z,96643.94
2023-01-03T14:07:05.132Z,96641.59
2023-01-03T14:10:20.380Z,96642.03
2023-01-03T14:13:36.659Z,96642.91
2023-01-03T14:16:45.655Z,96647.16
2023-01-03T14:19:51.319Z,96647.84
2023-01-03T14:22:54.705Z,96653.41
2023-01-03T14:26:04.760Z,96648.69
2023-01-03T14:29:15.781Z,96650.97
2023-01-03T14:32:21.806Z,96645.13
2023-01-03T14:35:38.368Z,96649.97
2023-01-03T14:38:47.360Z,96652.19
2023-01-03T14:41:49.270Z,96649.28
2023-01-03T14:44:55.556Z,96659.25
2023-01-03T14:47:57.472Z,96663.53
2023-01-03T14:51:01.223Z,96658.59
2023-01-03T14:54:04.222Z,96661.88
2023-01-03T14:57:06.143Z,96665.47
2023-01-03T15:00:16.532Z,96673.19
2023-01-03T15:03:18.892Z,96672.53
2023-01-03T15:06:23.755Z,96670.28
2023-01-03T15:09:26.019Z,96670.75
2023-01-03T15:12:36.851Z,96674.69
2023-01-03T15:15:40.225Z,96676.72
2023-01-03T15:18:43.877Z,96682.88
2023-01-03T15:21:45.812Z,96672.09
2023-01-03T15:24:51.107Z,96678.28
2023-01-03T15:27:52.943Z,96685.56
2023-01-03T15:30:59.184Z,96682.88
2023-01-03T15:34:09.610Z,96687.00
2023-01-03T15:37:15.049Z,96697.31
2023-01-03T15:40:17.337Z,96691.16
2023-01-03T15:43:25.154Z,96697.66
2023-01-03T15:46:28.466Z,96703.47
2023-01-03T15:49:37.172Z,96696.38
2023-01-03T15:52:39.033Z,96704.78
2023-01-03T15:55:40.931Z,96713.84
2023-01-03T15:58:42.968Z,96720.34
2023-01-03T16:01:46.312Z,96718.00
2023-01-03T16:04:48.789Z,96718.97
2023-01-03T16:07:50.742Z,96725.72
2023-01-03T16:10:52.991Z,96718.97
2023-01-03T16:13:57.761Z,96724.25
2023-01-03T16:17:02.285Z,96728.59
2023-01-03T16:20:04.713Z,96722.78
2023-01-03T16:23:08.341Z,96727.16
2023-01-03T16:26:10.414Z,96722.91
2023-01-03T16:29:12.955Z,96724.47
2023-01-03T16:32:20.716Z,96728.97
2023-01-03T16:35:22.791Z,96728.63
2023-01-03T16:38:24.599Z,96731.00
2023-01-03T16:41:26.454Z,96734.16
2023-01-03T16:44:28.270Z,96738.41
2023-01-03T16:47:33.913Z,96740.44
2023-01-03T16:50:39.216Z,96737.75
2023-01-03T16:53:41.148Z,96736.09
2023-01-03T16:56:43.088Z,96745.50
2023-01-03T16:59:45.488Z,96745.50
2023-01-03T17:02:48.934Z,96741.13
2023-01-03T17:05:51.482Z,96738.88
2023-01-03T17:08:53.575Z,96739.13
2023-01-03T17:11:55.491Z,96745.94
2023-01-03T17:14:57.421Z,96748.03
2023-01-03T17:18:00.737Z,96749.84
2023-01-03T17:21:11.490Z,96749.50
2023-01-03T17:24:17.045Z,96748.38
2023-01-03T17:27:27.810Z,96749.72
2023-01-03T17:30:33.541Z,96760.50
2023-01-03T17:33:36.958Z,96768.63
2023-01-03T17:36:39.054Z,96759.44
2023-01-03T17:39:40.956Z,96764.06
2023-01-03T17:42:43.046Z,96763.47
2023-01-03T17:45:44.886Z,96769.16
2023-01-03T17:48:48.161Z,96763.78
2023-01-03T17:51:50.852Z,96761.19
2023-01-03T17:54:52.747Z,96766.97
2023-01-03T17:57:55.573Z,96760.09
2023-01-03T18:00:57.552Z,96761.66
2023-01-03T18:04:00.945Z,96765.16
2023-01-03T18:07:02.840Z,96770.41
2023-01-03T18:10:05.472Z,96773.41
2023-01-03T18:13:18.833Z,96774.50
2023-01-03T18:16:22.736Z,96770.72
2023-01-03T18:19:26.135Z,96773.41
2023-01-03T18:22:28.647Z,96772.94
2023-01-03T18:25:30.558Z,96772.16
2023-01-03T18:28:32.633Z,96779.47
2023-01-03T18:31:34.835Z,96779.97
2023-01-03T18:34:38.270Z,96771.44
2023-01-03T18:37:40.311Z,96771.19
2023-01-03T18:40:42.117Z,96775.16
2023-01-03T18:43:43.979Z,96774.31
2023-01-03T18:46:49.481Z,96783.69
2023-01-03T18:49:54.410Z,96796.53
2023-01-03T18:53:00.831Z,96795.66
2023-01-03T18:56:02.779Z,96798.56
2023-01-03T18:59:08.626Z,96794.28
2023-01-03T19:02:14.439Z,96793.50
2023-01-03T19:05:18.366Z,96792.75
2023-01-03T19:08:21.355Z,96787.06
2023-01-03T19:11:29.309Z,96783.25
2023-01-03T19:14:31.097Z,96786.41
2023-01-03T19:17:33.169Z,96779.94
2023-01-03T19:20:36.439Z,96781.03
2023-01-03T19:23:40.261Z,96784.38
2023-01-03T19:26:46.019Z,96792.72
2023-01-03T19:29:48.926Z,96781.47
2023-01-03T19:32:54.595Z,96787.38
2023-01-03T19:35:57.832Z,96787.69
2023-01-03T19:38:59.755Z,96786.91
2023-01-03T19:42:02.858Z,96764.94
2023-01-03T19:45:14.999Z,96776.31
2023-01-03T19:48:19.020Z,96778.25
2023-01-03T19:51:23.043Z,96781.91
2023-01-03T19:54:25.428Z,96783.41
2023-01-03T19:57:33.175Z,96782.22
2023-01-03T20:00:35.753Z,96785.06
2023-01-03T20:03:40.549Z,96780.72
2023-01-03T20:06:45.250Z,96772.34
2023-01-03T20:09:47.648Z,96782.00
2023-01-03T20:12:51.917Z,96768.50
2023-01-03T20:15:55.694Z,96770.22
2023-01-03T20:18:59.647Z,96771.78
2023-01-03T20:22:03.850Z,96767.09
2023-01-03T20:25:07.413Z,96764.50
2023-01-03T20:28:17.606Z,96763.69
2023-01-03T20:31:21.019Z,96770.03
2023-01-03T20:34:24.020Z,96771.25
2023-01-03T20:37:27.852Z,96764.06
2023-01-03T20:40:30.031Z,96765.22
2023-01-03T20:43:32.702Z,96761.59
2023-01-03T20:46:35.539Z,96769.31
2023-01-03T20:49:40.533Z,96766.94
2023-01-03T20:52:44.407Z,96768.69
2023-01-03T20:55:46.957Z,96769.72
2023-01-03T20:58:49.028Z,96771.75
2023-01-03T21:01:51.127Z,96774.88
2023-01-03T21:04:53.190Z,96769.63
2023-01-03T21:07:57.312Z,96771.97
2023-01-03T21:10:59.843Z,96774.06
2023-01-03T21:14:02.178Z,96776.41
2023-01-03T21:17:07.899Z,96784.16
2023-01-03T21:20:15.421Z,96768.34
2023-01-03T21:23:20.962Z,96777.50
2023-01-03T21:26:23.304Z,96766.78
2023-01-03T21:29:26.829Z,96784.59
2023-01-03T21:32:28.824Z,96789.81
2023-01-03T21:35:30.951Z,96787.38
2023-01-03T21:38:34.581Z,96791.84
2023-01-03T21:41:36.842Z,96784.31
2023-01-03T21:44:38.719Z,96785.72
2023-01-03T21:47:41.010Z,96787.66
2023-01-03T21:50:45.688Z,96790.16
2023-01-03T21:53:49.114Z,96783.34
2023-01-03T21:56:50.969Z,96787.47
2023-01-03T21:59:52.827Z,96790.78
2023-01-03T22:02:59.704Z,96786.84
2023-01-03T22:06:06.952Z,96786.38
2023-01-03T22:09:10.227Z,96789.47
2023-01-03T22:12:15.241Z,96790.09
2023-01-03T22:15:17.782Z,96781.88
2023-01-03T22:18:19.663Z,96781.88
2023-01-03T22:21:21.537Z,96782.03
2023-01-03T22:24:24.788Z,96778.53
2023-01-03T22:27:26.677Z,96782.84
2023-01-03T22:30:28.544Z,96784.09
2023-01-03T22:33:32.782Z,96790.91
2023-01-03T22:36:34.633Z,96789.63
2023-01-03T22:39:37.915Z,96796.09
2023-01-03T22:42:39.788Z,96796.13
2023-01-03T22:45:41.696Z,96785.22
2023-01-03T22:48:44.675Z,96785.88
2023-01-03T22:51:46.574Z,96785.06
2023-01-03T22:54:50.299Z,96784.31
2023-01-03T22:57:52.179Z,96786.97
2023-01-03T23:00:54.120Z,96785.06
2023-01-03T23:03:58.336Z,96777.69
2023-01-03T23:07:00.247Z,96768.06
2023-01-03T23:10:03.753Z,96760.78
2023-01-03T23:13:05.679Z,96766.00
2023-01-03T23:16:07.981Z,96761.13
2023-01-03T23:19:14.167Z,96769.66
2023-01-03T23:22:16.091Z,96774.88
2023-01-03T23:25:19.376Z,96774.88
2023-01-03T23:28:21.173Z,96766.97
2023-01-03T23:31:23.294Z,96772.25
2023-01-03T23:34:25.171Z,96769.22
2023-01-03T23:37:27.435Z,96759.13
2023-01-03T23:40:30.651Z,96758.81
2023-01-03T23:43:32.476Z,96759.47
2023-01-03T23:46:34.376Z,96754.28
2023-01-03T23:49:36.250Z,96748.28
2023-01-03T23:52:38.108Z,96745.91
2023-01-03T23:55:41.323Z,96745.13
2023-01-03T23:58:43.631Z,96747.53
